createdAt,value
2017-08-05T00:01:22.606Z,98237.98
2017-08-05T00:03:50.049Z,98235.30
2017-08-05T00:06:17.492Z,98230.31
2017-08-05T00:08:44.953Z,98237.27
2017-08-05T00:11:12.415Z,98245.22
2017-08-05T00:13:39.879Z,98252.34
2017-08-05T00:16:07.329Z,98251.54
2017-08-05T00:18:34.796Z,98246.64
2017-08-05T00:21:02.264Z,98248.98
2017-08-05T00:23:29.708Z,98253.59
2017-08-05T00:25:57.181Z,98252.78
2017-08-05T00:28:24.629Z,98253.69
2017-08-05T00:30:52.100Z,98249.92
2017-08-05T00:33:19.561Z,98255.30
2017-08-05T00:35:47.045Z,98253.77
2017-08-05T00:38:14.494Z,98260.05
2017-08-05T00:40:41.961Z,98258.06
2017-08-05T00:43:09.408Z,98262.30
2017-08-05T00:45:36.887Z,98263.14
2017-08-05T00:48:04.708Z,98271.95
2017-08-05T00:50:32.152Z,98273.17
2017-08-05T00:52:59.605Z,98281.45
2017-08-05T00:55:27.081Z,98276.49
2017-08-05T00:57:54.696Z,98288.03
2017-08-05T01:00:22.140Z,98288.25
2017-08-05T01:02:49.581Z,98292.61
2017-08-05T01:05:17.052Z,98291.12
2017-08-05T01:07:44.496Z,98279.68
2017-08-05T01:10:11.945Z,98283.20
2017-08-05T01:12:39.417Z,98280.83
2017-08-05T01:15:06.871Z,98284.36
2017-08-05T01:17:34.336Z,98288.77
2017-08-05T01:20:01.792Z,98290.83
2017-08-05T01:22:29.281Z,98284.69
2017-08-05T01:24:56.730Z,98294.10
2017-08-05T01:27:24.213Z,98297.11
2017-08-05T01:29:51.665Z,98313.14
2017-08-05T01:32:19.137Z,98313.75
2017-08-05T01:34:46.600Z,98305.34
2017-08-05T01:37:14.059Z,98299.27
2017-08-05T01:39:41.521Z,98306.69
2017-08-05T01:42:08.994Z,98316.47
2017-08-05T01:44:36.440Z,98311.97
2017-08-05T01:47:03.921Z,98305.12
2017-08-05T01:49:31.359Z,98298.92
2017-08-05T01:51:58.825Z,98301.16
2017-08-05T01:54:26.261Z,98289.83
2017-08-05T01:56:53.741Z,98290.75
2017-08-05T01:59:21.358Z,98296.17
2017-08-05T02:01:48.814Z,98299.81
2017-08-05T02:04:16.277Z,98299.27
2017-08-05T02:06:43.728Z,98309.29
2017-08-05T02:09:11.183Z,98307.23
2017-08-05T02:11:38.653Z,98309.98
2017-08-05T02:14:06.103Z,98304.20
2017-08-05T02:16:33.543Z,98309.00
2017-08-05T02:19:01.011Z,98309.98
2017-08-05T02:21:28.481Z,98318.52
2017-08-05T02:23:55.945Z,98311.24
2017-08-05T02:26:23.418Z,98317.61
2017-08-05T02:28:50.879Z,98316.59
2017-08-05T02:31:18.533Z,98316.17
2017-08-05T02:33:45.989Z,98308.23
2017-08-05T02:36:13.437Z,98312.88
2017-08-05T02:38:40.913Z,98321.25
2017-08-05T02:41:08.349Z,98323.37
2017-08-05T02:43:35.793Z,98320.76
2017-08-05T02:46:03.276Z,98319.98
2017-08-05T02:48:30.764Z,98323.16
2017-08-05T02:50:58.218Z,98311.22
2017-08-05T02:53:25.659Z,98308.70
2017-08-05T02:55:53.541Z,98308.89
2017-08-05T02:58:20.985Z,98304.20
2017-08-05T03:00:48.426Z,98308.28
2017-08-05T03:03:15.902Z,98303.84
2017-08-05T03:05:43.350Z,98307.36
2017-08-05T03:08:10.816Z,98302.56
2017-08-05T03:10:38.253Z,98307.48
2017-08-05T03:13:05.722Z,98314.52
2017-08-05T03:15:33.189Z,98316.14
2017-08-05T03:18:00.937Z,98318.01
2017-08-05T03:20:28.386Z,98317.41
2017-08-05T03:22:55.832Z,98322.42
2017-08-05T03:25:23.306Z,98321.92
2017-08-05T03:27:50.745Z,98326.59
2017-08-05T03:30:18.213Z,98333.40
2017-08-05T03:32:45.660Z,98329.54
2017-08-05T03:35:13.110Z,98331.91
2017-08-05T03:37:40.978Z,98330.58
2017-08-05T03:40:08.419Z,98336.28
2017-08-05T03:42:35.857Z,98338.95
2017-08-05T03:45:03.324Z,98332.91
2017-08-05T03:47:30.773Z,98338.30
2017-08-05T03:49:58.233Z,98339.72
2017-08-05T03:52:25.722Z,98341.55
2017-08-05T03:54:53.169Z,98341.21
2017-08-05T03:57:20.621Z,98334.03
2017-08-05T03:59:48.095Z,98340.70
2017-08-05T04:02:15.544Z,98341.70
2017-08-05T04:04:43.015Z,98337.84
2017-08-05T04:07:10.473Z,98340.13
2017-08-05T04:09:37.926Z,98335.59
2017-08-05T04:12:05.393Z,98335.53
2017-08-05T04:14:32.970Z,98330.52
2017-08-05T04:17:00.417Z,98333.00
2017-08-05T04:19:27.873Z,98334.84
2017-08-05T04:21:55.340Z,98334.91
2017-08-05T04:24:22.792Z,98323.20
2017-08-05T04:26:50.269Z,98326.53
2017-08-05T04:29:17.936Z,98321.87
2017-08-05T04:31:45.382Z,98321.38
2017-08-05T04:34:12.833Z,98317.50
2017-08-05T04:36:40.305Z,98317.66
2017-08-05T04:39:07.764Z,98317.73
2017-08-05T04:41:35.208Z,98319.06
2017-08-05T04:44:02.686Z,98321.88
2017-08-05T04:46:30.136Z,98330.80
2017-08-05T04:48:57.577Z,98334.63
2017-08-05T04:51:25.038Z,98336.16
2017-08-05T04:53:52.490Z,98334.02
2017-08-05T04:56:19.953Z,98333.11
2017-08-05T04:58:47.405Z,98337.03
2017-08-05T05:01:14.869Z,98337.98
2017-08-05T05:03:42.334Z,98332.68
2017-08-05T05:06:09.777Z,98330.78
2017-08-05T05:08:37.251Z,98334.36
2017-08-05T05:11:04.708Z,98334.03
2017-08-05T05:13:32.178Z,98331.13
2017-08-05T05:15:59.630Z,98332.91
2017-08-05T05:18:27.098Z,98334.92
2017-08-05T05:20:54.548Z,98338.59
2017-08-05T05:23:22.128Z,98334.03
2017-08-05T05:25:49.581Z,98334.39
2017-08-05T05:28:17.027Z,98332.45
2017-08-05T05:30:44.499Z,98329.94
2017-08-05T05:33:11.973Z,98336.14
2017-08-05T05:35:39.458Z,98335.70
2017-08-05T05:38:06.928Z,98334.95
2017-08-05T05:40:34.369Z,98337.85
2017-08-05T05:43:01.845Z,98342.21
2017-08-05T05:45:29.508Z,98343.36
2017-08-05T05:47:56.956Z,98352.16
2017-08-05T05:50:24.403Z,98353.89
2017-08-05T05:52:51.866Z,98348.64
2017-08-05T05:55:19.329Z,98358.55
2017-08-05T05:57:46.781Z,98358.60
2017-08-05T06:00:14.241Z,98360.66
2017-08-05T06:02:41.688Z,98358.53
2017-08-05T06:05:09.157Z,98361.70
2017-08-05T06:07:36.597Z,98364.70
2017-08-05T06:10:04.060Z,98366.59
2017-08-05T06:12:31.505Z,98361.95
2017-08-05T06:14:59.076Z,98362.02
2017-08-05T06:17:26.522Z,98359.25
2017-08-05T06:19:53.968Z,98363.75
2017-08-05T06:22:21.441Z,98364.75
2017-08-05T06:24:48.900Z,98364.39
2017-08-05T06:27:16.378Z,98364.13
2017-08-05T06:29:43.860Z,98361.84
2017-08-05T06:32:11.322Z,98364.13
2017-08-05T06:34:38.774Z,98350.78
2017-08-05T06:37:06.257Z,98355.81
2017-08-05T06:39:33.705Z,98346.55
2017-08-05T06:42:01.153Z,98352.00
2017-08-05T06:44:28.859Z,98354.48
2017-08-05T06:46:56.327Z,98353.69
2017-08-05T06:49:23.786Z,98356.09
2017-08-05T06:51:51.538Z,98355.24
2017-08-05T06:54:18.985Z,98350.45
2017-08-05T06:56:46.437Z,98355.66
2017-08-05T06:59:13.921Z,98347.98
2017-08-05T07:01:41.376Z,98353.15
2017-08-05T07:04:08.819Z,98352.80
2017-08-05T07:06:36.302Z,98351.34
2017-08-05T07:09:03.770Z,98349.22
2017-08-05T07:11:31.217Z,98347.61
2017-08-05T07:13:58.685Z,98351.78
2017-08-05T07:16:26.129Z,98353.20
2017-08-05T07:18:53.598Z,98347.05
2017-08-05T07:21:21.423Z,98342.50
2017-08-05T07:23:48.896Z,98342.44
2017-08-05T07:26:16.366Z,98337.05
2017-08-05T07:28:44.093Z,98333.09
2017-08-05T07:31:11.538Z,98331.21
2017-08-05T07:33:38.980Z,98336.62
2017-08-05T07:36:06.460Z,98332.42
2017-08-05T07:38:33.956Z,98328.97
2017-08-05T07:41:01.404Z,98327.14
2017-08-05T07:43:28.881Z,98326.01
2017-08-05T07:45:56.594Z,98329.53
2017-08-05T07:48:24.049Z,98325.63
2017-08-05T07:50:51.501Z,98319.45
2017-08-05T07:53:18.989Z,98320.05
2017-08-05T07:55:46.438Z,98318.16
2017-08-05T07:58:13.884Z,98307.55
2017-08-05T08:00:41.367Z,98313.36
2017-08-05T08:03:08.817Z,98310.66
2017-08-05T08:05:36.261Z,98310.67
2017-08-05T08:08:03.830Z,98305.86
2017-08-05T08:10:31.277Z,98308.54
2017-08-05T08:12:58.726Z,98311.11
2017-08-05T08:15:26.192Z,98305.95
2017-08-05T08:17:53.640Z,98309.50
2017-08-05T08:20:21.112Z,98303.23
2017-08-05T08:22:48.556Z,98305.58
2017-08-05T08:25:16.036Z,98306.74
2017-08-05T08:27:43.491Z,98304.65
2017-08-05T08:30:11.185Z,98304.85
2017-08-05T08:32:38.634Z,98307.88
2017-08-05T08:35:06.083Z,98304.67
2017-08-05T08:37:33.546Z,98308.58
2017-08-05T08:40:01.041Z,98307.74
2017-08-05T08:42:28.486Z,98304.70
2017-08-05T08:44:55.925Z,98305.37
2017-08-05T08:47:23.403Z,98306.05
2017-08-05T08:49:50.849Z,98307.36
2017-08-05T08:52:18.319Z,98309.32
2017-08-05T08:54:45.789Z,98310.27
2017-08-05T08:57:13.237Z,98311.92
2017-08-05T08:59:40.711Z,98312.64
2017-08-05T09:02:08.185Z,98312.39
2017-08-05T09:04:35.639Z,98310.81
2017-08-05T09:07:03.111Z,98308.32
2017-08-05T09:09:30.580Z,98302.56
2017-08-05T09:11:58.049Z,98303.94
2017-08-05T09:14:25.498Z,98303.05
2017-08-05T09:16:52.943Z,98306.73
2017-08-05T09:19:20.421Z,98309.43
2017-08-05T09:21:47.875Z,98303.05
2017-08-05T09:24:15.344Z,98305.50
2017-08-05T09:26:42.797Z,98305.50
2017-08-05T09:29:10.270Z,98302.85
2017-08-05T09:31:37.714Z,98302.05
2017-08-05T09:34:05.164Z,98290.28
2017-08-05T09:36:32.636Z,98282.95
2017-08-05T09:39:00.084Z,98281.42
2017-08-05T09:41:27.534Z,98280.30
2017-08-05T09:43:55.001Z,98276.34
2017-08-05T09:46:22.443Z,98272.49
2017-08-05T09:48:49.909Z,98260.83
2017-08-05T09:51:17.352Z,98273.14
2017-08-05T09:53:44.821Z,98276.31
2017-08-05T09:56:12.276Z,98270.06
2017-08-05T09:58:40.026Z,98275.45
2017-08-05T10:01:07.489Z,98264.17
2017-08-05T10:03:34.945Z,98264.04
2017-08-05T10:06:02.418Z,98266.70
2017-08-05T10:08:29.875Z,98271.33
2017-08-05T10:10:57.635Z,98267.92
2017-08-05T10:13:25.113Z,98261.29
2017-08-05T10:15:52.589Z,98262.94
2017-08-05T10:18:20.037Z,98263.78
2017-08-05T10:20:47.492Z,98261.00
2017-08-05T10:23:14.983Z,98252.36
2017-08-05T10:25:42.434Z,98254.05
2017-08-05T10:28:09.885Z,98252.66
2017-08-05T10:30:37.644Z,98246.95
2017-08-05T10:33:05.104Z,98253.47
2017-08-05T10:35:32.559Z,98253.08
2017-08-05T10:38:00.309Z,98256.75
2017-08-05T10:40:27.750Z,98248.13
2017-08-05T10:42:55.192Z,98252.53
2017-08-05T10:45:22.986Z,98247.03
2017-08-05T10:47:50.435Z,98237.52
2017-08-05T10:50:17.895Z,98244.55
2017-08-05T10:52:45.709Z,98238.28
2017-08-05T10:55:13.180Z,98233.23
2017-08-05T10:57:40.625Z,98234.11
2017-08-05T11:00:08.116Z,98235.47
2017-08-05T11:02:35.562Z,98233.73
2017-08-05T11:05:03.014Z,98235.81
2017-08-05T11:07:30.763Z,98242.45
2017-08-05T11:09:58.212Z,98229.64
2017-08-05T11:12:25.808Z,98232.47
2017-08-05T11:14:53.276Z,98229.91
2017-08-05T11:17:20.892Z,98228.58
2017-08-05T11:19:48.388Z,98220.44
2017-08-05T11:22:15.839Z,98215.95
2017-08-05T11:24:43.287Z,98214.45
2017-08-05T11:27:10.862Z,98207.02
2017-08-05T11:29:38.336Z,98208.87
2017-08-05T11:32:06.265Z,98197.77
2017-08-05T11:34:33.720Z,98193.02
2017-08-05T11:37:01.177Z,98196.86
2017-08-05T11:39:28.976Z,98188.41
2017-08-05T11:41:56.432Z,98195.77
2017-08-05T11:44:23.922Z,98187.44
2017-08-05T11:46:52.356Z,98186.13
2017-08-05T11:49:19.815Z,98181.38
2017-08-05T11:51:47.486Z,98174.11
2017-08-05T11:54:15.432Z,98178.11
2017-08-05T11:56:42.876Z,98182.33
2017-08-05T11:59:10.482Z,98185.20
2017-08-05T12:01:37.969Z,98180.23
2017-08-05T12:04:05.422Z,98195.51
2017-08-05T12:06:33.184Z,98190.34
2017-08-05T12:09:00.647Z,98195.76
2017-08-05T12:11:28.089Z,98190.11
2017-08-05T12:13:55.866Z,98183.17
2017-08-05T12:16:23.318Z,98185.70
2017-08-05T12:18:51.087Z,98179.42
2017-08-05T12:21:18.531Z,98181.95
2017-08-05T12:23:46.036Z,98178.29
2017-08-05T12:26:13.533Z,98178.59
2017-08-05T12:28:41.186Z,98171.50
2017-08-05T12:31:08.754Z,98173.88
2017-08-05T12:33:36.216Z,98169.58
2017-08-05T12:36:03.730Z,98174.11
2017-08-05T12:38:31.370Z,98176.14
2017-08-05T12:40:58.814Z,98164.37
2017-08-05T12:43:26.264Z,98165.25
2017-08-05T12:45:53.761Z,98157.00
2017-08-05T12:48:21.198Z,98156.66
2017-08-05T12:50:48.654Z,98155.38
2017-08-05T12:53:16.397Z,98148.66
2017-08-05T12:55:43.862Z,98144.49
2017-08-05T12:58:11.667Z,98149.44
2017-08-05T13:00:39.195Z,98146.75
2017-08-05T13:03:06.902Z,98141.88
2017-08-05T13:05:34.342Z,98142.18
2017-08-05T13:08:01.789Z,98143.90
2017-08-05T13:10:29.579Z,98133.80
2017-08-05T13:12:57.310Z,98135.11
2017-08-05T13:15:24.892Z,98134.80
2017-08-05T13:17:52.593Z,98126.73
2017-08-05T13:20:20.051Z,98130.64
2017-08-05T13:22:47.512Z,98124.31
2017-08-05T13:25:15.269Z,98122.74
2017-08-05T13:27:42.711Z,98126.12
2017-08-05T13:30:10.492Z,98123.64
2017-08-05T13:32:38.068Z,98127.59
2017-08-05T13:35:05.518Z,98125.02
2017-08-05T13:37:33.192Z,98121.83
2017-08-05T13:40:00.639Z,98125.10
2017-08-05T13:42:28.399Z,98119.58
2017-08-05T13:44:55.870Z,98121.86
2017-08-05T13:47:23.677Z,98121.74
2017-08-05T13:49:51.125Z,98117.40
2017-08-05T13:52:18.866Z,98108.13
2017-08-05T13:54:46.318Z,98105.42
2017-08-05T13:57:13.763Z,98106.41
2017-08-05T13:59:42.172Z,98111.81
2017-08-05T14:02:09.627Z,98108.05
2017-08-05T14:04:37.069Z,98117.50
2017-08-05T14:07:04.552Z,98109.77
2017-08-05T14:09:32.041Z,98103.42
2017-08-05T14:11:59.477Z,98104.30
2017-08-05T14:14:26.926Z,98108.29
2017-08-05T14:16:54.435Z,98104.19
2017-08-05T14:19:21.891Z,98107.08
2017-08-05T14:21:49.359Z,98105.22
2017-08-05T14:24:16.838Z,98103.29
2017-08-05T14:26:44.285Z,98108.24
2017-08-05T14:29:11.741Z,98101.42
2017-08-05T14:31:39.225Z,98092.62
2017-08-05T14:34:06.677Z,98095.78
2017-08-05T14:36:34.142Z,98096.06
2017-08-05T14:39:01.615Z,98094.06
2017-08-05T14:41:29.121Z,98087.77
2017-08-05T14:43:56.569Z,98091.30
2017-08-05T14:46:24.017Z,98091.83
2017-08-05T14:48:51.501Z,98091.08
2017-08-05T14:51:18.949Z,98089.04
2017-08-05T14:53:48.592Z,98081.30
2017-08-05T14:56:16.150Z,98079.61
2017-08-05T14:58:43.608Z,98081.40
2017-08-05T15:01:11.110Z,98078.88
2017-08-05T15:03:38.556Z,98081.31
2017-08-05T15:06:05.999Z,98080.78
2017-08-05T15:08:33.500Z,98068.30
2017-08-05T15:11:00.942Z,98075.11
2017-08-05T15:13:28.398Z,98076.55
2017-08-05T15:15:55.899Z,98074.42
2017-08-05T15:18:23.353Z,98063.83
2017-08-05T15:20:50.792Z,98070.64
2017-08-05T15:23:18.269Z,98065.59
2017-08-05T15:25:45.716Z,98061.77
2017-08-05T15:28:13.194Z,98066.37
2017-08-05T15:30:40.648Z,98061.33
2017-08-05T15:33:08.098Z,98071.14
2017-08-05T15:35:35.578Z,98071.40
2017-08-05T15:38:03.037Z,98065.97
2017-08-05T15:40:30.802Z,98066.13
2017-08-05T15:42:58.296Z,98065.52
2017-08-05T15:45:25.757Z,98068.44
2017-08-05T15:47:53.216Z,98063.34
2017-08-05T15:50:20.694Z,98064.66
2017-08-05T15:52:48.181Z,98064.16
2017-08-05T15:55:15.680Z,98060.81
2017-08-05T15:57:43.151Z,98055.43
2017-08-05T16:00:10.630Z,98060.91
2017-08-05T16:02:38.109Z,98055.95
2017-08-05T16:05:05.550Z,98042.09
2017-08-05T16:07:32.998Z,98047.46
2017-08-05T16:10:00.623Z,98048.56
2017-08-05T16:12:28.074Z,98044.94
2017-08-05T16:14:55.542Z,98047.02
2017-08-05T16:17:23.010Z,98042.96
2017-08-05T16:19:50.519Z,98042.69
2017-08-05T16:22:17.988Z,98051.67
2017-08-05T16:24:45.433Z,98051.61
2017-08-05T16:27:13.498Z,98054.17
2017-08-05T16:29:40.978Z,98053.70
2017-08-05T16:32:08.743Z,98054.00
2017-08-05T16:34:36.216Z,98057.28
2017-08-05T16:37:03.662Z,98052.30
2017-08-05T16:39:31.146Z,98045.81
2017-08-05T16:41:58.597Z,98052.15
2017-08-05T16:44:26.040Z,98050.73
2017-08-05T16:46:53.508Z,98046.17
2017-08-05T16:49:20.949Z,98032.25
2017-08-05T16:51:48.441Z,98040.06
2017-08-05T16:54:15.894Z,98041.37
2017-08-05T16:56:43.337Z,98044.84
2017-08-05T16:59:10.823Z,98048.86
2017-08-05T17:01:38.269Z,98050.77
2017-08-05T17:04:05.714Z,98053.62
2017-08-05T17:06:33.196Z,98043.50
2017-08-05T17:09:00.681Z,98049.22
2017-08-05T17:11:28.189Z,98046.73
2017-08-05T17:13:55.640Z,98050.94
2017-08-05T17:16:23.114Z,98048.13
2017-08-05T17:18:50.585Z,98056.44
2017-08-05T17:21:18.035Z,98058.16
2017-08-05T17:23:45.518Z,98068.55
2017-08-05T17:26:12.979Z,98062.37
2017-08-05T17:28:40.435Z,98059.47
2017-08-05T17:31:07.977Z,98063.41
2017-08-05T17:33:35.425Z,98061.52
2017-08-05T17:36:02.883Z,98070.38
2017-08-05T17:38:30.380Z,98063.59
2017-08-05T17:40:57.825Z,98060.88
2017-08-05T17:43:25.281Z,98078.43
2017-08-05T17:45:52.776Z,98079.62
2017-08-05T17:48:20.565Z,98078.16
2017-08-05T17:50:48.018Z,98082.16
2017-08-05T17:53:15.528Z,98090.09
2017-08-05T17:55:43.239Z,98085.52
2017-08-05T17:58:10.702Z,98079.91
2017-08-05T18:00:38.199Z,98065.09
2017-08-05T18:03:05.641Z,98060.45
2017-08-05T18:05:33.090Z,98069.63
2017-08-05T18:08:00.581Z,98070.81
2017-08-05T18:10:28.022Z,98063.12
2017-08-05T18:12:55.518Z,98066.64
2017-08-05T18:15:22.971Z,98074.08
2017-08-05T18:17:50.417Z,98083.41
2017-08-05T18:20:17.894Z,98083.55
2017-08-05T18:22:45.349Z,98082.83
2017-08-05T18:25:13.069Z,98081.67
2017-08-05T18:27:40.574Z,98079.27
2017-08-05T18:30:08.009Z,98081.39
2017-08-05T18:32:35.460Z,98097.18
2017-08-05T18:35:03.058Z,98101.24
2017-08-05T18:37:30.515Z,98103.89
2017-08-05T18:39:57.970Z,98105.27
2017-08-05T18:42:25.446Z,98114.20
2017-08-05T18:44:52.897Z,98115.51
2017-08-05T18:47:20.495Z,98117.75
2017-08-05T18:49:47.956Z,98106.75
2017-08-05T18:52:15.435Z,98104.33
2017-08-05T18:54:42.964Z,98109.05
2017-08-05T18:57:10.411Z,98110.75
2017-08-05T18:59:37.921Z,98119.83
2017-08-05T19:02:05.629Z,98129.20
2017-08-05T19:04:33.186Z,98145.16
2017-08-05T19:07:00.703Z,98148.28
2017-08-05T19:09:28.158Z,98148.63
2017-08-05T19:11:55.648Z,98141.59
2017-08-05T19:14:23.312Z,98149.18
2017-08-05T19:16:50.765Z,98152.12
2017-08-05T19:19:18.211Z,98144.14
2017-08-05T19:21:45.710Z,98138.60
2017-08-05T19:24:13.176Z,98138.77
2017-08-05T19:26:40.639Z,98143.22
2017-08-05T19:29:08.189Z,98145.25
2017-08-05T19:31:35.636Z,98144.96
2017-08-05T19:34:03.154Z,98148.31
2017-08-05T19:36:30.678Z,98146.33
2017-08-05T19:38:58.197Z,98144.21
2017-08-05T19:41:25.716Z,98142.54
2017-08-05T19:43:53.271Z,98139.70
2017-08-05T19:46:20.762Z,98145.34
2017-08-05T19:48:48.227Z,98154.14
2017-08-05T19:51:15.665Z,98164.75
2017-08-05T19:53:43.738Z,98168.06
2017-08-05T19:56:11.204Z,98167.22
2017-08-05T19:58:38.645Z,98172.02
2017-08-05T20:01:06.134Z,98179.82
2017-08-05T20:03:33.629Z,98191.22
2017-08-05T20:06:01.373Z,98191.95
2017-08-05T20:08:29.327Z,98195.72
2017-08-05T20:10:56.889Z,98201.78
2017-08-05T20:13:24.418Z,98207.93
2017-08-05T20:15:51.873Z,98213.64
2017-08-05T20:18:19.357Z,98214.19
2017-08-05T20:20:46.810Z,98216.42
2017-08-05T20:23:14.461Z,98217.09
2017-08-05T20:25:41.980Z,98222.14
2017-08-05T20:28:09.647Z,98217.91
2017-08-05T20:30:37.114Z,98220.78
2017-08-05T20:33:04.572Z,98226.59
2017-08-05T20:35:32.437Z,98226.82
2017-08-05T20:37:59.898Z,98224.73
2017-08-05T20:40:27.709Z,98218.63
2017-08-05T20:42:55.720Z,98223.09
2017-08-05T20:45:23.245Z,98220.81
2017-08-05T20:47:50.694Z,98218.11
2017-08-05T20:50:19.084Z,98217.59
2017-08-05T20:52:46.524Z,98220.00
2017-08-05T20:55:13.985Z,98227.02
2017-08-05T20:57:41.476Z,98229.39
2017-08-05T21:00:08.930Z,98227.22
2017-08-05T21:02:36.397Z,98219.23
2017-08-05T21:05:03.843Z,98207.39
2017-08-05T21:07:31.564Z,98201.41
2017-08-05T21:09:59.004Z,98191.11
2017-08-05T21:12:26.513Z,98177.85
2017-08-05T21:14:53.990Z,98177.31
2017-08-05T21:17:21.484Z,98172.13
2017-08-05T21:19:48.937Z,98167.83
2017-08-05T21:22:16.389Z,98161.73
2017-08-05T21:24:44.079Z,98161.38
2017-08-05T21:27:11.527Z,98172.79
2017-08-05T21:29:38.976Z,98167.76
2017-08-05T21:32:06.778Z,98175.23
2017-08-05T21:34:34.261Z,98176.26
2017-08-05T21:37:01.708Z,98175.64
2017-08-05T21:39:29.449Z,98173.89
2017-08-05T21:41:56.903Z,98179.73
2017-08-05T21:44:24.369Z,98178.02
2017-08-05T21:46:52.149Z,98169.66
2017-08-05T21:49:19.604Z,98178.95
2017-08-05T21:51:47.051Z,98179.34
2017-08-05T21:54:14.532Z,98179.74
2017-08-05T21:56:41.997Z,98179.14
2017-08-05T21:59:09.745Z,98172.86
2017-08-05T22:01:37.518Z,98163.98
2017-08-05T22:04:05.246Z,98158.16
2017-08-05T22:06:32.699Z,98155.91
2017-08-05T22:09:00.291Z,98148.73
2017-08-05T22:11:27.983Z,98148.94
2017-08-05T22:13:55.435Z,98139.77
2017-08-05T22:16:22.944Z,98137.53
2017-08-05T22:18:50.410Z,98137.78
2017-08-05T22:21:17.862Z,98149.43
2017-08-05T22:23:45.341Z,98156.61
2017-08-05T22:26:12.786Z,98160.54
2017-08-05T22:28:40.253Z,98163.69
2017-08-05T22:31:07.741Z,98163.97
2017-08-05T22:33:35.217Z,98161.16
2017-08-05T22:36:02.665Z,98154.13
2017-08-05T22:38:30.134Z,98148.41
2017-08-05T22:40:57.621Z,98149.89
2017-08-05T22:43:25.074Z,98159.89
2017-08-05T22:45:52.545Z,98182.44
2017-08-05T22:48:20.014Z,98175.94
2017-08-05T22:50:47.462Z,98167.80
2017-08-05T22:53:15.098Z,98187.02
2017-08-05T22:55:42.549Z,98199.25
2017-08-05T22:58:10.002Z,98202.74
2017-08-05T23:00:37.780Z,98215.70
2017-08-05T23:03:05.226Z,98225.70
2017-08-05T23:05:32.668Z,98230.53
2017-08-05T23:08:00.151Z,98232.48
2017-08-05T23:10:27.601Z,98244.99
2017-08-05T23:12:55.054Z,98263.53
2017-08-05T23:15:22.597Z,98297.09
2017-08-05T23:17:50.040Z,98300.34
2017-08-05T23:20:17.529Z,98318.43
2017-08-05T23:22:45.007Z,98327.89
2017-08-05T23:25:12.485Z,98329.75
2017-08-05T23:27:39.930Z,98326.64
2017-08-05T23:30:07.394Z,98319.45
2017-08-05T23:32:34.865Z,98331.20
2017-08-05T23:35:02.313Z,98356.70
2017-08-05T23:37:29.786Z,98349.75
2017-08-05T23:39:57.240Z,98351.02
2017-08-05T23:42:24.710Z,98356.09
2017-08-05T23:44:52.188Z,98343.36
2017-08-05T23:47:19.632Z,98332.52
2017-08-05T23:49:47.294Z,98362.27
2017-08-05T23:52:14.736Z,98379.44
2017-08-05T23:54:42.189Z,98387.96
2017-08-05T23:57:09.658Z,98401.00
2017-08-05T23:59:37.105Z,98411.87
